• Join FlightAware (Why Join?)
  • Login
  • US Flag 
06:05PM EDT


 

Airport Tracker/Info


-or-


 

Live Flight TrackerFlight Track Log ✈ EJA114 ✈ 09-May-2013 ✈ KORD - KCMH

Flight Track Log - Related Links

Times and Time Zones

All times are in EDT time to prevent confusion due to time zone crossing. See the EJA114 flight status page for this flight to view local times or setup timezone preferences in your user account.

Time Position Orientation Groundspeed Altitude Reporting Facility
EDT Latitude Longitude Course Direction KTS MPH feet Rate Location/Type
06:15PM 41.9500 -87.9000 217° Southwest 154 177 1,900  Level Chicago TRACON
06:16PM 41.9167 -87.9333 217° Southwest 172 198 4,800 1,080 Climbing Chicago TRACON
06:18PM 41.8644 -87.7858 115° Southeast 259 298 5,000 60 Climbing Chicago Center
06:19PM 41.8731 -87.6847 83° East 271 312 5,000 240 Level Chicago Center
06:20PM 41.8861 -87.5808 80° East 278 320 5,600 1,380 Climbing Chicago Center
06:21PM 41.8969 -87.4739 82° East 288 331 7,900 2,400 Climbing Chicago Center
06:22PM 41.9103 -87.3658 81° East 292 336 10,600 2,460 Climbing Chicago Center
06:23PM 41.9250 -87.2372 81° East 292 336 13,000 1,920 Climbing Chicago Center
06:24PM 41.9381 -87.1217 81° East 313 360 14,600 1,380 Climbing Chicago Center
06:25PM 41.9467 -86.9953 85° East 339 390 15,900 1,380 Climbing Chicago Center
06:26PM 41.9478 -86.8569 89° East 368 423 17,500 1,500 Climbing Chicago Center
06:27PM 41.9500 -86.7186 89° East 372 428 19,000 1,500 Climbing Chicago Center
06:28PM 41.9511 -86.5581 89° East 374 430 20,600 1,260 Climbing Chicago Center
06:29PM 41.9533 -86.4178 89° East 376 433 21,700 1,080 Climbing Chicago Center
06:30PM 41.9550 -86.2797 89° East 373 429 22,900 1,080 Climbing Chicago Center
06:31PM 41.9361 -86.1439 101° East 377 434 24,000 960 Climbing Chicago Center
06:32PM 41.8958 -86.0142 113° Southeast 376 433 24,900 900 Climbing Chicago Center
06:33PM 41.8478 -85.8511 112° Southeast 392 451 25,900 840 Climbing Chicago Center
06:34PM 41.8075 -85.7136 111° Southeast 396 456 26,700 480 Climbing Chicago Center
06:35PM 41.7600 -85.5775 115° Southeast 402 463 27,000 120 Climbing Chicago Center
06:36PM 41.6697 -85.4819 142° Southeast 412 474 27,000  Level Chicago Center
06:37PM 41.5486 -85.4289 162° South 409 471 27,000  Level Chicago Center
06:38PM 41.4394 -85.3808 162° South 416 479 27,000  Level Chicago Center
06:39PM 41.3289 -85.3331 162° South 419 482 27,000 -120 Level Chicago Center
06:40PM 41.2156 -85.2850 162° South 425 489 26,800 -600 Descending Chicago Center
06:41PM 41.1028 -85.2358 162° South 427 491 25,800 -1,380 Descending Chicago Center
06:42PM 40.9897 -85.1878 162° South 428 493 24,000 -1,380 Descending Chicago Center
06:44PM 40.8822 -85.0744 141° Southeast 425 489 23,000 -540 Descending Chicago Center
06:45PM 40.8625 -84.9200 100° East 432 497 23,000  Level Chicago Center
06:46PM 40.8494 -84.7617 96° East 435 501 23,000  Level Chicago Center
06:47PM 40.8044 -84.6194 113° Southeast 426 490 23,000  Level Chicago Center
06:48PM 40.7617 -84.4800 112° Southeast 416 479 23,000  Level Chicago Center
06:48PM 40.7217 -84.3539 113° Southeast 401 461 23,000 -600 Level Indianapolis Center
06:50PM 40.6803 -84.2219 112° Southeast 387 445 22,000 -1,440 Descending Indianapolis Center
06:51PM 40.6364 -84.0831 113° Southeast 403 464 20,100 -1,800 Descending Indianapolis Center
06:52PM 40.5928 -83.9436 112° Southeast 409 471 18,300 -1,740 Descending Indianapolis Center
06:53PM 40.5478 -83.8100 114° Southeast 377 434 16,600 -1,800 Descending Indianapolis Center
06:54PM 40.5039 -83.6672 112° Southeast 386 444 14,700 -1,800 Descending Indianapolis Center
06:54PM 40.4733 -83.5728 113° Southeast 378 435 13,400 -1,500 Descending Indianapolis Center
06:55PM 40.4692 -83.5550 107° East 375 432 13,100 -1,620 Descending Indianapolis Center
06:55PM 40.4356 -83.4558 114° Southeast 347 399 11,800 -1,800 Descending Indianapolis Center
06:56PM 40.4236 -83.4175 112° Southeast 353 406 11,300 -840 Descending Indianapolis Center
06:56PM 40.3892 -83.3433 121° Southeast 353 406 11,000 -600 Descending Indianapolis Center
06:57PM 40.3683 -83.3111 130° Southeast 355 409 10,700 -1,020 Descending Indianapolis Center
06:57PM 40.3206 -83.2475 135° Southeast 330 380 10,000 -780 Descending Indianapolis Center
06:58PM 40.3042 -83.2219 130° Southeast 333 383 9,900  Descending Indianapolis Center
06:58PM 40.2556 -83.1578 135° Southeast 334 384 10,000 -120 Climbing Indianapolis Center
06:59PM 40.2428 -83.1308 122° Southeast 327 376 9,800 -1,680 Descending Indianapolis Center
06:59PM 40.2131 -83.0761 125° Southeast 288 331 8,500 -2,040 Descending Indianapolis Center
07:00PM 40.1975 -83.0433 122° Southeast 291 335 7,700 -1,920 Descending Indianapolis Center
07:00PM 40.1686 -82.9919 126° Southeast 279 321 6,600 -1,680 Descending Indianapolis Center
07:01PM 40.1528 -82.9581 121° Southeast 284 327 6,000 -540 Descending Indianapolis Center
07:02PM 40.1208 -82.8936 123° Southeast 274 315 6,000 -120 Level Indianapolis Center
07:02PM 40.1114 -82.8744 123° Southeast 275 316 5,900 -600 Descending Indianapolis Center
07:02PM 40.0894 -82.8303 123° Southeast 269 310 5,600 -900 Descending Indianapolis Center
07:03PM 40.0711 -82.7922 122° Southeast 268 308 5,000 -1,080 Descending Indianapolis Center
07:03PM 40.0489 -82.7494 124° Southeast 232 267 4,400 -1,200 Descending Indianapolis Center
07:04PM 40.0281 -82.7358 153° Southeast 248 285 3,800 -1,020 Descending Indianapolis Center
07:04PM 40.0008 -82.7467 197° South 181 208 3,500 -1,200 Descending Indianapolis Center
07:05PM 39.9981 -82.7781 263° West 181 208 2,600 -1,200 Descending Indianapolis Center
07:05PM 39.9975 -82.7981 268° West 129 148 2,300 -900 Descending Indianapolis Center
07:06PM 39.9992 -82.8292 274° West 151 174 1,700 -900 Descending Indianapolis Center
07:06PM 40.0003 -82.8500 274° West 128 147 1,300 -600 Descending Indianapolis Center
07:07PM 40.0006 -82.8733 271° West 141 162 1,100 -360 Descending Indianapolis Center